Marquette, MI (49855)

7:14 AM EDT on August 21, 2014 (GMT -0400)
KMIMARQU8 | Change Station
CLOSE
Current Station
Personal Weather Station
Location: Marquette, MI
Elevation: 597 ft
Nearby Weather Stations

Elev 597 ft 46.50 °N, 87.36 °W | Updated 8 minutes ago

Overcast
Overcast
58.3 °F
Feels Like 58.3 °F
N
0.0
Wind Variable Wind from NE

Today
High -- | Low -- °F
--% Chance of Precip.
Yesterday
High -- | Low -- °F
Precip. -- in
6:55 AM 8:48 PM
Waning Crescent, 15% visible
Pressure 29.97 in
Visibility 5.0 miles
Clouds Mostly Cloudy 300 ft
Overcast 2600 ft
Dew Point 58 °F
Humidity 99%
Rainfall 0.00 in
Snow Depth Not available.
UV 0 out of 12
Pollen 9.10 out of 12
Ozone Good
PM2.5 Good
Flu Activity Not available.
METAR KSAW 210957Z AUTO 00000KT 5SM BR BKN003 OVC026 15/15 A2997 RMK AO2 T01500146

More Conditions Fewer Conditions

Pressure 29.97 in
Visibility 5.0 miles
Clouds Mostly Cloudy 300 ft
Overcast 2600 ft
Dew Point 58 °F
Humidity 99%
Rainfall 0.00 in
Snow Depth Not available.
UV 0 out of 12
Pollen 9.10 out of 12
Ozone Good
PM2.5 Good
Flu Activity Not available.
METAR KSAW 210957Z AUTO 00000KT 5SM BR BKN003 OVC026 15/15 A2997 RMK AO2 T01500146

More Conditions Fewer Conditions

10-Day Weather Forecast

Almanac

Astronomy

Aug. 21, 2014 Rise Set
Actual Time 6:55 AM EDT 8:48 PM EDT
Civil Twilight 6:23 AM EDT 9:20 PM EDT
Nautical Twilight 5:43 AM EDT 10:00 PM EDT
Astronomical Twilight 4:59 AM EDT 10:43 PM EDT
Moon 3:19 AM EDT 6:22 PM EDT
Length of Visible Light 14h 57m
Length of Day
13h 53m
Tomorrow will be 3m 3s shorter.
Waning Crescent, 15% of the Moon is Illuminated
Today
Waning Crescent
Aug 25
New
Sep 2
First Quarter
Sep 8
Full
Sep 15
Last Quarter

Today's Extremes

State Highs State Lows

Community

WunderPhotos

Upload Photos

1,745,872 photos uploaded!

Nearby

Air Quality

  Air Quality AQ Index Pollutant
Yesterday Good
PM2.5
Yesterday Good
OZONE
Current Good
PM2.5
Current Good
OZONE
Thursday Good
OZONE
Thursday Good
PM2.5

Snow Depth

Station Depth Elevation
No new snow has been reported.

Earthquake Activity

City Distance Mag. Time & Date
No recent earthquake activity has been reported nearby.
Minimum magnitude displayed is 2.5.

Coastal Water Temperatures

Place Temperature
Port Inland, MI 61.0 °F

Nearby Weather Stations